Terminal Aerodrome Forecast
Issued by NWS Omaha/Valley, NE

Home | Current Version | Previous Version | Text Only | Print | Product List | Glossary On
Versions: 1 2 3 4 5 6 7 8 9 10 11 12 13 14 15 16 17
000
FTUS43 KOAX 221720
TAFOFK
TAF
KOFK 221720Z 2218/2318 30007KT P6SM SCT060
     FM222000 34012KT P6SM BKN080
     FM230200 35008KT P6SM SCT130
     FM231100 32008KT P6SM SCT200
     FM231400 32012G20KT P6SM SCT140=

USA.gov is the U.S. government's official web portal to all federal, state and local government web resources and services.